Terminal Aerodrome Forecast
Issued by NWS Burlington, VT

Home | Current Version | Previous Version | Text Only | Print | Product List | Glossary On
Versions: 1 2 3 4 5 6 7 8 9 10 11 12 13 14 15 16
208
FTUS41 KBTV 301731
TAFBTV
TAF
KBTV 301731Z 3018/0118 34004KT P6SM -RA BKN080 OVC110
     FM301900 36004KT P6SM OVC050
     FM010300 16005KT P6SM VCSH OVC030
     FM010900 17013KT P6SM VCSH BKN025
     FM011200 18012KT P6SM BKN020=

USA.gov is the U.S. government's official web portal to all federal, state and local government web resources and services.